sensor_id;sensor_type;location;lat;lon;timestamp;temperature;humidity
11908;DHT22;6014;47.690;9.130;2023-04-24T00:01:29;10.50;99.90
11908;DHT22;6014;47.690;9.130;2023-04-24T00:04:08;10.50;99.90
11908;DHT22;6014;47.690;9.130;2023-04-24T00:07:05;10.50;99.90
11908;DHT22;6014;47.690;9.130;2023-04-24T00:09:43;10.50;99.90
11908;DHT22;6014;47.690;9.130;2023-04-24T00:12:20;10.40;99.90
11908;DHT22;6014;47.690;9.130;2023-04-24T00:14:48;10.50;99.90
11908;DHT22;6014;47.690;9.130;2023-04-24T00:17:20;10.50;99.90
11908;DHT22;6014;47.690;9.130;2023-04-24T00:19:48;10.50;99.90
11908;DHT22;6014;47.690;9.130;2023-04-24T00:22:17;10.50;99.90
11908;DHT22;6014;47.690;9.130;2023-04-24T00:25:11;10.50;99.90
11908;DHT22;6014;47.690;9.130;2023-04-24T00:28:06;10.50;99.90
11908;DHT22;6014;47.690;9.130;2023-04-24T00:31:08;10.50;99.90
11908;DHT22;6014;47.690;9.130;2023-04-24T00:33:57;10.50;99.90
11908;DHT22;6014;47.690;9.130;2023-04-24T00:36:36;10.50;99.90
11908;DHT22;6014;47.690;9.130;2023-04-24T00:39:15;10.50;99.90
11908;DHT22;6014;47.690;9.130;2023-04-24T00:41:54;10.60;99.90
11908;DHT22;6014;47.690;9.130;2023-04-24T00:44:34;10.60;99.90
11908;DHT22;6014;47.690;9.130;2023-04-24T00:47:17;10.70;99.90
11908;DHT22;6014;47.690;9.130;2023-04-24T00:50:14;10.70;99.90
11908;DHT22;6014;47.690;9.130;2023-04-24T00:53:05;10.70;99.90
11908;DHT22;6014;47.690;9.130;2023-04-24T00:55:40;10.60;99.90
11908;DHT22;6014;47.690;9.130;2023-04-24T00:58:17;10.60;99.90
11908;DHT22;6014;47.690;9.130;2023-04-24T01:00:50;10.60;99.90
11908;DHT22;6014;47.690;9.130;2023-04-24T01:03:28;10.50;99.90
11908;DHT22;6014;47.690;9.130;2023-04-24T01:06:13;10.50;99.90
11908;DHT22;6014;47.690;9.130;2023-04-24T01:08:50;10.50;99.90
11908;DHT22;6014;47.690;9.130;2023-04-24T01:11:26;10.50;99.90
11908;DHT22;6014;47.690;9.130;2023-04-24T01:14:16;10.50;99.90
11908;DHT22;6014;47.690;9.130;2023-04-24T01:17:00;10.50;99.90
11908;DHT22;6014;47.690;9.130;2023-04-24T01:19:32;10.50;99.90
11908;DHT22;6014;47.690;9.130;2023-04-24T01:22:10;10.40;99.90
11908;DHT22;6014;47.690;9.130;2023-04-24T01:24:43;10.40;99.90
11908;DHT22;6014;47.690;9.130;2023-04-24T01:27:18;10.40;99.90
11908;DHT22;6014;47.690;9.130;2023-04-24T01:29:50;10.30;99.90
11908;DHT22;6014;47.690;9.130;2023-04-24T01:32:28;10.30;99.90
11908;DHT22;6014;47.690;9.130;2023-04-24T01:35:10;10.30;99.90
11908;DHT22;6014;47.690;9.130;2023-04-24T01:37:52;10.30;99.90
11908;DHT22;6014;47.690;9.130;2023-04-24T01:40:41;10.30;99.90
11908;DHT22;6014;47.690;9.130;2023-04-24T01:43:18;10.30;99.90
11908;DHT22;6014;47.690;9.130;2023-04-24T01:46:14;10.20;99.90
11908;DHT22;6014;47.690;9.130;2023-04-24T01:49:01;10.20;99.90
11908;DHT22;6014;47.690;9.130;2023-04-24T01:51:41;10.20;99.90
11908;DHT22;6014;47.690;9.130;2023-04-24T01:54:27;10.20;99.90
11908;DHT22;6014;47.690;9.130;2023-04-24T01:56:58;10.20;99.90
11908;DHT22;6014;47.690;9.130;2023-04-24T01:59:35;10.20;99.90
11908;DHT22;6014;47.690;9.130;2023-04-24T02:02:14;10.20;99.90
11908;DHT22;6014;47.690;9.130;2023-04-24T02:04:43;10.10;99.90
11908;DHT22;6014;47.690;9.130;2023-04-24T02:07:12;10.10;99.90
11908;DHT22;6014;47.690;9.130;2023-04-24T02:09:41;10.10;99.90
11908;DHT22;6014;47.690;9.130;2023-04-24T02:12:10;10.10;99.90
11908;DHT22;6014;47.690;9.130;2023-04-24T02:14:38;10.10;99.90
11908;DHT22;6014;47.690;9.130;2023-04-24T02:17:06;10.10;99.90
11908;DHT22;6014;47.690;9.130;2023-04-24T02:19:34;10.20;99.90
11908;DHT22;6014;47.690;9.130;2023-04-24T02:22:03;10.20;99.90
11908;DHT22;6014;47.690;9.130;2023-04-24T02:24:46;10.20;99.90
11908;DHT22;6014;47.690;9.130;2023-04-24T02:27:14;10.20;99.90
11908;DHT22;6014;47.690;9.130;2023-04-24T02:29:45;10.20;99.90
11908;DHT22;6014;47.690;9.130;2023-04-24T02:32:14;10.10;99.90
11908;DHT22;6014;47.690;9.130;2023-04-24T02:34:46;10.10;99.90
11908;DHT22;6014;47.690;9.130;2023-04-24T02:37:22;10.10;99.90
11908;DHT22;6014;47.690;9.130;2023-04-24T02:39:52;10.10;99.90
11908;DHT22;6014;47.690;9.130;2023-04-24T02:42:20;10.10;99.90
11908;DHT22;6014;47.690;9.130;2023-04-24T02:44:48;10.10;99.90
11908;DHT22;6014;47.690;9.130;2023-04-24T02:47:18;10.00;99.90
11908;DHT22;6014;47.690;9.130;2023-04-24T02:49:46;10.10;99.90
11908;DHT22;6014;47.690;9.130;2023-04-24T02:52:14;10.00;99.90
11908;DHT22;6014;47.690;9.130;2023-04-24T02:54:43;9.90;99.90
11908;DHT22;6014;47.690;9.130;2023-04-24T02:57:12;9.90;99.90
11908;DHT22;6014;47.690;9.130;2023-04-24T02:59:42;10.00;99.90
11908;DHT22;6014;47.690;9.130;2023-04-24T03:02:10;10.00;99.90
11908;DHT22;6014;47.690;9.130;2023-04-24T03:04:38;9.90;99.90
11908;DHT22;6014;47.690;9.130;2023-04-24T03:07:06;9.90;99.90
11908;DHT22;6014;47.690;9.130;2023-04-24T03:09:36;9.90;99.90
11908;DHT22;6014;47.690;9.130;2023-04-24T03:12:04;9.90;99.90
11908;DHT22;6014;47.690;9.130;2023-04-24T03:14:33;9.90;99.90
11908;DHT22;6014;47.690;9.130;2023-04-24T03:17:01;9.80;99.90
11908;DHT22;6014;47.690;9.130;2023-04-24T03:19:30;9.80;99.90
11908;DHT22;6014;47.690;9.130;2023-04-24T03:21:58;9.80;99.90
11908;DHT22;6014;47.690;9.130;2023-04-24T03:24:26;9.80;99.90
11908;DHT22;6014;47.690;9.130;2023-04-24T03:26:55;9.80;99.90
11908;DHT22;6014;47.690;9.130;2023-04-24T03:29:23;9.90;99.90
11908;DHT22;6014;47.690;9.130;2023-04-24T03:31:53;9.80;99.90
11908;DHT22;6014;47.690;9.130;2023-04-24T03:34:21;9.80;99.90
11908;DHT22;6014;47.690;9.130;2023-04-24T03:36:49;9.90;99.90
11908;DHT22;6014;47.690;9.130;2023-04-24T03:39:17;9.90;99.90
11908;DHT22;6014;47.690;9.130;2023-04-24T03:41:45;9.80;99.90
11908;DHT22;6014;47.690;9.130;2023-04-24T03:44:13;9.80;99.90
11908;DHT22;6014;47.690;9.130;2023-04-24T03:46:41;9.90;99.90
11908;DHT22;6014;47.690;9.130;2023-04-24T03:49:11;9.80;99.90
11908;DHT22;6014;47.690;9.130;2023-04-24T03:51:39;9.80;99.90
11908;DHT22;6014;47.690;9.130;2023-04-24T03:54:07;9.90;99.90
11908;DHT22;6014;47.690;9.130;2023-04-24T03:56:35;9.90;99.90
11908;DHT22;6014;47.690;9.130;2023-04-24T03:59:03;9.90;99.90
11908;DHT22;6014;47.690;9.130;2023-04-24T04:01:31;9.90;99.90
11908;DHT22;6014;47.690;9.130;2023-04-24T04:04:03;9.90;99.90
11908;DHT22;6014;47.690;9.130;2023-04-24T04:06:33;9.90;99.90
11908;DHT22;6014;47.690;9.130;2023-04-24T04:09:03;9.90;99.90
11908;DHT22;6014;47.690;9.130;2023-04-24T04:11:31;9.90;99.90
11908;DHT22;6014;47.690;9.130;2023-04-24T04:13:59;9.90;99.90
11908;DHT22;6014;47.690;9.130;2023-04-24T04:16:27;9.90;99.90
11908;DHT22;6014;47.690;9.130;2023-04-24T04:18:55;10.00;99.90
11908;DHT22;6014;47.690;9.130;2023-04-24T04:21:23;9.90;99.90
11908;DHT22;6014;47.690;9.130;2023-04-24T04:23:53;9.90;99.90
11908;DHT22;6014;47.690;9.130;2023-04-24T04:26:21;9.90;99.90
11908;DHT22;6014;47.690;9.130;2023-04-24T04:28:52;10.00;99.90
11908;DHT22;6014;47.690;9.130;2023-04-24T04:31:21;9.90;99.90
11908;DHT22;6014;47.690;9.130;2023-04-24T04:33:52;9.90;99.90
11908;DHT22;6014;47.690;9.130;2023-04-24T04:36:20;9.90;99.90
11908;DHT22;6014;47.690;9.130;2023-04-24T04:38:48;9.90;99.90
11908;DHT22;6014;47.690;9.130;2023-04-24T04:41:17;10.00;99.90
11908;DHT22;6014;47.690;9.130;2023-04-24T04:43:46;9.90;99.90
11908;DHT22;6014;47.690;9.130;2023-04-24T04:46:14;9.90;99.90
11908;DHT22;6014;47.690;9.130;2023-04-24T04:48:43;10.00;99.90
11908;DHT22;6014;47.690;9.130;2023-04-24T04:51:12;10.00;99.90
11908;DHT22;6014;47.690;9.130;2023-04-24T04:53:40;10.00;99.90
11908;DHT22;6014;47.690;9.130;2023-04-24T04:56:08;10.00;99.90
11908;DHT22;6014;47.690;9.130;2023-04-24T04:58:38;10.10;99.90
11908;DHT22;6014;47.690;9.130;2023-04-24T05:01:06;10.10;99.90
11908;DHT22;6014;47.690;9.130;2023-04-24T05:03:34;10.10;99.90
11908;DHT22;6014;47.690;9.130;2023-04-24T05:06:05;10.10;99.90
11908;DHT22;6014;47.690;9.130;2023-04-24T05:08:35;10.00;99.90
11908;DHT22;6014;47.690;9.130;2023-04-24T05:11:03;10.00;99.90
11908;DHT22;6014;47.690;9.130;2023-04-24T05:13:33;9.80;99.90
11908;DHT22;6014;47.690;9.130;2023-04-24T05:16:07;9.80;99.90
11908;DHT22;6014;47.690;9.130;2023-04-24T05:18:37;9.70;99.90
11908;DHT22;6014;47.690;9.130;2023-04-24T05:21:05;9.70;99.90
11908;DHT22;6014;47.690;9.130;2023-04-24T05:23:33;9.60;99.90
11908;DHT22;6014;47.690;9.130;2023-04-24T05:26:03;9.60;99.90
11908;DHT22;6014;47.690;9.130;2023-04-24T05:28:33;9.60;99.90
11908;DHT22;6014;47.690;9.130;2023-04-24T05:31:03;9.50;99.90
11908;DHT22;6014;47.690;9.130;2023-04-24T05:33:33;9.40;99.90
11908;DHT22;6014;47.690;9.130;2023-04-24T05:36:01;9.40;99.90
11908;DHT22;6014;47.690;9.130;2023-04-24T05:38:29;9.40;99.90
11908;DHT22;6014;47.690;9.130;2023-04-24T05:41:01;9.40;99.90
11908;DHT22;6014;47.690;9.130;2023-04-24T05:43:29;9.30;99.90
11908;DHT22;6014;47.690;9.130;2023-04-24T05:45:58;9.40;99.90
11908;DHT22;6014;47.690;9.130;2023-04-24T05:48:29;9.40;99.90
11908;DHT22;6014;47.690;9.130;2023-04-24T05:50:59;9.50;99.90
11908;DHT22;6014;47.690;9.130;2023-04-24T05:53:27;9.60;99.90
11908;DHT22;6014;47.690;9.130;2023-04-24T05:55:55;9.70;99.90
11908;DHT22;6014;47.690;9.130;2023-04-24T05:58:23;9.80;99.90
11908;DHT22;6014;47.690;9.130;2023-04-24T06:00:52;9.90;99.90
11908;DHT22;6014;47.690;9.130;2023-04-24T06:03:20;10.00;99.90
11908;DHT22;6014;47.690;9.130;2023-04-24T06:05:50;10.00;99.90
11908;DHT22;6014;47.690;9.130;2023-04-24T06:08:20;10.10;99.90
11908;DHT22;6014;47.690;9.130;2023-04-24T06:10:48;10.10;99.90
11908;DHT22;6014;47.690;9.130;2023-04-24T06:13:16;10.00;99.90
11908;DHT22;6014;47.690;9.130;2023-04-24T06:15:47;10.10;99.90
11908;DHT22;6014;47.690;9.130;2023-04-24T06:18:21;10.50;99.90
11908;DHT22;6014;47.690;9.130;2023-04-24T06:21:12;10.90;99.90
11908;DHT22;6014;47.690;9.130;2023-04-24T06:23:55;10.90;99.90
11908;DHT22;6014;47.690;9.130;2023-04-24T06:26:38;10.70;99.90
11908;DHT22;6014;47.690;9.130;2023-04-24T06:29:17;11.00;99.90
11908;DHT22;6014;47.690;9.130;2023-04-24T06:31:58;11.40;99.90
11908;DHT22;6014;47.690;9.130;2023-04-24T06:34:35;11.20;99.90
11908;DHT22;6014;47.690;9.130;2023-04-24T06:37:18;11.10;99.90
11908;DHT22;6014;47.690;9.130;2023-04-24T06:39:55;11.20;99.90
11908;DHT22;6014;47.690;9.130;2023-04-24T06:42:42;11.40;99.90
11908;DHT22;6014;47.690;9.130;2023-04-24T06:45:21;11.20;99.90
11908;DHT22;6014;47.690;9.130;2023-04-24T06:47:54;11.10;99.90
11908;DHT22;6014;47.690;9.130;2023-04-24T06:50:34;11.00;99.90
11908;DHT22;6014;47.690;9.130;2023-04-24T06:53:10;11.00;99.90
11908;DHT22;6014;47.690;9.130;2023-04-24T06:55:56;10.80;99.90
11908;DHT22;6014;47.690;9.130;2023-04-24T06:58:47;10.70;99.90
11908;DHT22;6014;47.690;9.130;2023-04-24T07:01:17;11.50;99.90
11908;DHT22;6014;47.690;9.130;2023-04-24T07:03:58;12.00;99.90
11908;DHT22;6014;47.690;9.130;2023-04-24T07:06:33;11.60;99.90
11908;DHT22;6014;47.690;9.130;2023-04-24T07:09:08;12.30;99.90
11908;DHT22;6014;47.690;9.130;2023-04-24T07:11:45;12.40;99.90
11908;DHT22;6014;47.690;9.130;2023-04-24T07:14:23;12.30;99.90
11908;DHT22;6014;47.690;9.130;2023-04-24T07:17:14;12.40;99.90
11908;DHT22;6014;47.690;9.130;2023-04-24T07:19:48;12.60;99.90
11908;DHT22;6014;47.690;9.130;2023-04-24T07:22:21;12.10;99.90
11908;DHT22;6014;47.690;9.130;2023-04-24T07:24:52;12.10;99.90
11908;DHT22;6014;47.690;9.130;2023-04-24T07:27:26;12.20;99.90
11908;DHT22;6014;47.690;9.130;2023-04-24T07:30:00;12.00;99.90
11908;DHT22;6014;47.690;9.130;2023-04-24T07:32:31;12.00;99.90
11908;DHT22;6014;47.690;9.130;2023-04-24T07:35:12;12.50;99.90
11908;DHT22;6014;47.690;9.130;2023-04-24T07:37:43;12.90;99.90
11908;DHT22;6014;47.690;9.130;2023-04-24T07:40:16;13.20;99.90
11908;DHT22;6014;47.690;9.130;2023-04-24T07:42:52;13.00;99.90
11908;DHT22;6014;47.690;9.130;2023-04-24T07:45:23;12.60;99.90
11908;DHT22;6014;47.690;9.130;2023-04-24T07:47:58;12.30;99.90
11908;DHT22;6014;47.690;9.130;2023-04-24T07:50:39;12.20;99.90
11908;DHT22;6014;47.690;9.130;2023-04-24T07:53:18;12.00;99.90
11908;DHT22;6014;47.690;9.130;2023-04-24T07:56:04;12.00;99.90
11908;DHT22;6014;47.690;9.130;2023-04-24T07:58:42;12.50;99.90
11908;DHT22;6014;47.690;9.130;2023-04-24T08:01:20;12.30;99.90
11908;DHT22;6014;47.690;9.130;2023-04-24T08:03:58;12.20;99.90
11908;DHT22;6014;47.690;9.130;2023-04-24T08:06:38;12.10;99.90
11908;DHT22;6014;47.690;9.130;2023-04-24T08:09:18;11.90;99.90
11908;DHT22;6014;47.690;9.130;2023-04-24T08:11:51;11.60;99.90
11908;DHT22;6014;47.690;9.130;2023-04-24T08:14:45;11.60;99.90
11908;DHT22;6014;47.690;9.130;2023-04-24T08:17:41;11.60;99.90
11908;DHT22;6014;47.690;9.130;2023-04-24T08:20:38;11.80;99.90
11908;DHT22;6014;47.690;9.130;2023-04-24T08:23:38;11.60;99.90
11908;DHT22;6014;47.690;9.130;2023-04-24T08:26:17;11.50;99.90
11908;DHT22;6014;47.690;9.130;2023-04-24T08:28:55;11.40;99.90
11908;DHT22;6014;47.690;9.130;2023-04-24T08:31:31;11.40;99.90
11908;DHT22;6014;47.690;9.130;2023-04-24T08:34:12;11.40;99.90
11908;DHT22;6014;47.690;9.130;2023-04-24T08:36:51;11.50;99.90
11908;DHT22;6014;47.690;9.130;2023-04-24T08:39:30;11.50;99.90
11908;DHT22;6014;47.690;9.130;2023-04-24T08:42:20;11.60;99.90
11908;DHT22;6014;47.690;9.130;2023-04-24T08:44:57;11.60;99.90
11908;DHT22;6014;47.690;9.130;2023-04-24T08:47:38;11.70;99.90
11908;DHT22;6014;47.690;9.130;2023-04-24T08:50:40;11.80;99.90
11908;DHT22;6014;47.690;9.130;2023-04-24T08:53:28;11.70;99.90
11908;DHT22;6014;47.690;9.130;2023-04-24T08:56:06;11.90;99.90
11908;DHT22;6014;47.690;9.130;2023-04-24T08:58:41;12.00;99.90
11908;DHT22;6014;47.690;9.130;2023-04-24T09:01:15;12.30;99.90
11908;DHT22;6014;47.690;9.130;2023-04-24T09:03:54;12.50;99.90
11908;DHT22;6014;47.690;9.130;2023-04-24T09:06:55;12.30;99.90
11908;DHT22;6014;47.690;9.130;2023-04-24T09:09:40;11.90;99.90
11908;DHT22;6014;47.690;9.130;2023-04-24T09:12:17;12.10;99.90
11908;DHT22;6014;47.690;9.130;2023-04-24T09:14:53;12.10;99.90
11908;DHT22;6014;47.690;9.130;2023-04-24T09:17:30;12.20;99.90
11908;DHT22;6014;47.690;9.130;2023-04-24T09:20:10;12.20;99.90
11908;DHT22;6014;47.690;9.130;2023-04-24T09:22:52;12.40;98.00
11908;DHT22;6014;47.690;9.130;2023-04-24T09:25:31;12.50;96.20
11908;DHT22;6014;47.690;9.130;2023-04-24T09:28:25;12.60;98.20
11908;DHT22;6014;47.690;9.130;2023-04-24T09:31:06;12.40;97.20
11908;DHT22;6014;47.690;9.130;2023-04-24T09:33:59;12.10;99.00
11908;DHT22;6014;47.690;9.130;2023-04-24T09:36:33;12.30;98.80
11908;DHT22;6014;47.690;9.130;2023-04-24T09:39:22;12.30;97.60
11908;DHT22;6014;47.690;9.130;2023-04-24T09:41:54;12.00;97.70
11908;DHT22;6014;47.690;9.130;2023-04-24T09:44:28;12.60;95.90
11908;DHT22;6014;47.690;9.130;2023-04-24T09:47:09;13.00;90.30
11908;DHT22;6014;47.690;9.130;2023-04-24T09:50:01;13.00;90.80
11908;DHT22;6014;47.690;9.130;2023-04-24T09:53:01;13.60;85.30
11908;DHT22;6014;47.690;9.130;2023-04-24T09:55:56;14.30;65.30
11908;DHT22;6014;47.690;9.130;2023-04-24T09:58:39;14.50;58.70
11908;DHT22;6014;47.690;9.130;2023-04-24T10:01:29;14.80;54.10
11908;DHT22;6014;47.690;9.130;2023-04-24T10:04:16;15.50;56.10
11908;DHT22;6014;47.690;9.130;2023-04-24T10:06:54;15.90;50.10
11908;DHT22;6014;47.690;9.130;2023-04-24T10:09:38;16.20;46.30
11908;DHT22;6014;47.690;9.130;2023-04-24T10:12:16;16.00;45.70
11908;DHT22;6014;47.690;9.130;2023-04-24T10:14:56;16.00;45.00
11908;DHT22;6014;47.690;9.130;2023-04-24T10:17:35;16.10;44.40
11908;DHT22;6014;47.690;9.130;2023-04-24T10:20:21;15.90;44.20
11908;DHT22;6014;47.690;9.130;2023-04-24T10:23:29;15.30;47.40
11908;DHT22;6014;47.690;9.130;2023-04-24T10:26:06;14.20;48.50
11908;DHT22;6014;47.690;9.130;2023-04-24T10:28:52;14.00;52.80
11908;DHT22;6014;47.690;9.130;2023-04-24T10:31:31;13.70;53.40
11908;DHT22;6014;47.690;9.130;2023-04-24T10:34:18;13.40;55.00
11908;DHT22;6014;47.690;9.130;2023-04-24T10:37:18;13.30;58.10
11908;DHT22;6014;47.690;9.130;2023-04-24T10:39:58;13.20;54.50
11908;DHT22;6014;47.690;9.130;2023-04-24T10:42:52;13.10;53.50
11908;DHT22;6014;47.690;9.130;2023-04-24T10:45:35;13.10;50.00
11908;DHT22;6014;47.690;9.130;2023-04-24T10:48:30;14.20;48.20
11908;DHT22;6014;47.690;9.130;2023-04-24T10:51:11;14.20;45.40
11908;DHT22;6014;47.690;9.130;2023-04-24T10:53:50;14.30;44.30
11908;DHT22;6014;47.690;9.130;2023-04-24T10:56:27;14.80;44.20
11908;DHT22;6014;47.690;9.130;2023-04-24T10:59:24;15.40;44.30
11908;DHT22;6014;47.690;9.130;2023-04-24T11:02:03;15.90;41.40
11908;DHT22;6014;47.690;9.130;2023-04-24T11:04:42;16.20;39.70
11908;DHT22;6014;47.690;9.130;2023-04-24T11:07:36;16.50;39.30
11908;DHT22;6014;47.690;9.130;2023-04-24T11:10:30;16.30;36.80
11908;DHT22;6014;47.690;9.130;2023-04-24T11:13:10;16.40;36.90
11908;DHT22;6014;47.690;9.130;2023-04-24T11:16:21;16.20;36.10
11908;DHT22;6014;47.690;9.130;2023-04-24T11:19:28;15.90;36.50
11908;DHT22;6014;47.690;9.130;2023-04-24T11:22:17;15.90;39.40
11908;DHT22;6014;47.690;9.130;2023-04-24T11:24:53;15.90;38.20
11908;DHT22;6014;47.690;9.130;2023-04-24T11:27:29;15.40;40.80
11908;DHT22;6014;47.690;9.130;2023-04-24T11:30:16;14.70;42.30
11908;DHT22;6014;47.690;9.130;2023-04-24T11:33:10;14.50;42.60
11908;DHT22;6014;47.690;9.130;2023-04-24T11:35:58;14.10;43.00
11908;DHT22;6014;47.690;9.130;2023-04-24T11:38:34;13.70;41.60
11908;DHT22;6014;47.690;9.130;2023-04-24T11:41:10;13.60;45.90
11908;DHT22;6014;47.690;9.130;2023-04-24T11:44:12;13.90;46.20
11908;DHT22;6014;47.690;9.130;2023-04-24T11:46:52;13.90;46.90
11908;DHT22;6014;47.690;9.130;2023-04-24T11:49:58;14.00;44.90
11908;DHT22;6014;47.690;9.130;2023-04-24T11:53:03;14.60;43.80
11908;DHT22;6014;47.690;9.130;2023-04-24T11:55:48;15.00;41.50
11908;DHT22;6014;47.690;9.130;2023-04-24T11:58:28;15.10;39.90
11908;DHT22;6014;47.690;9.130;2023-04-24T12:01:12;14.80;42.30
11908;DHT22;6014;47.690;9.130;2023-04-24T12:04:01;14.60;43.50
11908;DHT22;6014;47.690;9.130;2023-04-24T12:07:08;14.60;42.30
11908;DHT22;6014;47.690;9.130;2023-04-24T12:09:58;14.60;41.80
11908;DHT22;6014;47.690;9.130;2023-04-24T12:12:48;15.20;40.80
11908;DHT22;6014;47.690;9.130;2023-04-24T12:15:32;15.50;42.20
11908;DHT22;6014;47.690;9.130;2023-04-24T12:18:23;15.80;42.20
11908;DHT22;6014;47.690;9.130;2023-04-24T12:21:20;16.60;38.90
11908;DHT22;6014;47.690;9.130;2023-04-24T12:24:11;16.30;36.60
11908;DHT22;6014;47.690;9.130;2023-04-24T12:27:00;16.10;35.80
11908;DHT22;6014;47.690;9.130;2023-04-24T12:29:32;15.80;36.50
11908;DHT22;6014;47.690;9.130;2023-04-24T12:32:16;15.30;38.70
11908;DHT22;6014;47.690;9.130;2023-04-24T12:35:03;14.80;38.30
11908;DHT22;6014;47.690;9.130;2023-04-24T12:37:46;14.80;41.40
11908;DHT22;6014;47.690;9.130;2023-04-24T12:40:22;14.60;38.10
11908;DHT22;6014;47.690;9.130;2023-04-24T12:43:19;14.50;39.80
11908;DHT22;6014;47.690;9.130;2023-04-24T12:46:00;14.40;41.60
11908;DHT22;6014;47.690;9.130;2023-04-24T12:48:54;14.30;39.10
11908;DHT22;6014;47.690;9.130;2023-04-24T12:51:31;14.80;39.40
11908;DHT22;6014;47.690;9.130;2023-04-24T12:54:06;14.70;39.30
11908;DHT22;6014;47.690;9.130;2023-04-24T12:56:45;15.20;40.50
11908;DHT22;6014;47.690;9.130;2023-04-24T12:59:38;16.10;38.00
11908;DHT22;6014;47.690;9.130;2023-04-24T13:02:18;15.80;36.80
11908;DHT22;6014;47.690;9.130;2023-04-24T13:05:06;15.70;36.20
11908;DHT22;6014;47.690;9.130;2023-04-24T13:07:54;15.50;36.80
11908;DHT22;6014;47.690;9.130;2023-04-24T13:10:43;15.30;37.80
11908;DHT22;6014;47.690;9.130;2023-04-24T13:13:56;15.80;37.70
11908;DHT22;6014;47.690;9.130;2023-04-24T13:16:28;15.10;36.40
11908;DHT22;6014;47.690;9.130;2023-04-24T13:18:56;15.20;37.90
11908;DHT22;6014;47.690;9.130;2023-04-24T13:21:24;15.10;37.20
11908;DHT22;6014;47.690;9.130;2023-04-24T13:23:53;14.60;40.30
11908;DHT22;6014;47.690;9.130;2023-04-24T13:26:21;14.70;41.90
11908;DHT22;6014;47.690;9.130;2023-04-24T13:28:50;15.30;41.40
11908;DHT22;6014;47.690;9.130;2023-04-24T13:31:18;16.10;38.30
11908;DHT22;6014;47.690;9.130;2023-04-24T13:33:46;16.50;35.40
11908;DHT22;6014;47.690;9.130;2023-04-24T13:36:14;16.50;34.10
11908;DHT22;6014;47.690;9.130;2023-04-24T13:38:44;16.30;36.90
11908;DHT22;6014;47.690;9.130;2023-04-24T13:41:12;15.80;34.60
11908;DHT22;6014;47.690;9.130;2023-04-24T13:43:40;16.40;34.80
11908;DHT22;6014;47.690;9.130;2023-04-24T13:46:11;16.50;34.00
11908;DHT22;6014;47.690;9.130;2023-04-24T13:48:39;16.50;32.00
11908;DHT22;6014;47.690;9.130;2023-04-24T13:51:07;16.80;32.80
11908;DHT22;6014;47.690;9.130;2023-04-24T13:53:35;17.00;33.30
11908;DHT22;6014;47.690;9.130;2023-04-24T13:56:05;17.30;32.20
11908;DHT22;6014;47.690;9.130;2023-04-24T13:58:34;17.40;33.00
11908;DHT22;6014;47.690;9.130;2023-04-24T14:01:06;17.20;32.90
11908;DHT22;6014;47.690;9.130;2023-04-24T14:03:37;17.30;30.80
11908;DHT22;6014;47.690;9.130;2023-04-24T14:06:06;17.50;29.80
11908;DHT22;6014;47.690;9.130;2023-04-24T14:08:34;16.80;31.10
11908;DHT22;6014;47.690;9.130;2023-04-24T14:11:03;16.30;32.20
11908;DHT22;6014;47.690;9.130;2023-04-24T14:13:31;16.40;33.30
11908;DHT22;6014;47.690;9.130;2023-04-24T14:15:59;16.60;31.90
11908;DHT22;6014;47.690;9.130;2023-04-24T14:18:31;17.20;31.40
11908;DHT22;6014;47.690;9.130;2023-04-24T14:21:01;16.80;30.00
11908;DHT22;6014;47.690;9.130;2023-04-24T14:23:29;15.70;32.90
11908;DHT22;6014;47.690;9.130;2023-04-24T14:25:58;15.40;34.30
11908;DHT22;6014;47.690;9.130;2023-04-24T14:28:27;15.10;36.90
11908;DHT22;6014;47.690;9.130;2023-04-24T14:30:55;14.60;37.70
11908;DHT22;6014;47.690;9.130;2023-04-24T14:33:28;14.80;38.80
11908;DHT22;6014;47.690;9.130;2023-04-24T14:35:56;15.00;38.70
11908;DHT22;6014;47.690;9.130;2023-04-24T14:38:26;15.40;38.60
11908;DHT22;6014;47.690;9.130;2023-04-24T14:40:54;16.20;37.90
11908;DHT22;6014;47.690;9.130;2023-04-24T14:43:33;16.60;33.00
11908;DHT22;6014;47.690;9.130;2023-04-24T14:46:02;16.40;31.30
11908;DHT22;6014;47.690;9.130;2023-04-24T14:48:32;16.40;32.60
11908;DHT22;6014;47.690;9.130;2023-04-24T14:51:00;16.70;31.30
11908;DHT22;6014;47.690;9.130;2023-04-24T14:53:29;17.00;31.00
11908;DHT22;6014;47.690;9.130;2023-04-24T14:55:58;16.80;29.70
11908;DHT22;6014;47.690;9.130;2023-04-24T14:58:28;16.50;30.80
11908;DHT22;6014;47.690;9.130;2023-04-24T15:00:59;16.60;31.10
11908;DHT22;6014;47.690;9.130;2023-04-24T15:03:30;16.40;31.30
11908;DHT22;6014;47.690;9.130;2023-04-24T15:05:58;16.80;31.00
11908;DHT22;6014;47.690;9.130;2023-04-24T15:08:29;15.90;32.70
11908;DHT22;6014;47.690;9.130;2023-04-24T15:10:57;15.90;34.40
11908;DHT22;6014;47.690;9.130;2023-04-24T15:13:25;15.50;33.90
11908;DHT22;6014;47.690;9.130;2023-04-24T15:15:54;15.20;36.10
11908;DHT22;6014;47.690;9.130;2023-04-24T15:18:22;14.60;37.40
11908;DHT22;6014;47.690;9.130;2023-04-24T15:20:50;14.80;39.50
11908;DHT22;6014;47.690;9.130;2023-04-24T15:23:18;15.90;38.90
11908;DHT22;6014;47.690;9.130;2023-04-24T15:25:48;16.40;36.00
11908;DHT22;6014;47.690;9.130;2023-04-24T15:28:16;16.60;35.20
11908;DHT22;6014;47.690;9.130;2023-04-24T15:30:44;16.90;33.60
11908;DHT22;6014;47.690;9.130;2023-04-24T15:33:12;16.90;32.70
11908;DHT22;6014;47.690;9.130;2023-04-24T15:35:41;17.30;31.70
11908;DHT22;6014;47.690;9.130;2023-04-24T15:38:09;17.50;31.20
11908;DHT22;6014;47.690;9.130;2023-04-24T15:40:37;17.40;31.20
11908;DHT22;6014;47.690;9.130;2023-04-24T15:43:07;17.00;31.50
11908;DHT22;6014;47.690;9.130;2023-04-24T15:45:35;16.60;32.90
11908;DHT22;6014;47.690;9.130;2023-04-24T15:48:04;16.50;33.90
11908;DHT22;6014;47.690;9.130;2023-04-24T15:50:41;16.40;32.20
11908;DHT22;6014;47.690;9.130;2023-04-24T15:53:09;16.60;34.00
11908;DHT22;6014;47.690;9.130;2023-04-24T15:55:37;16.60;33.50
11908;DHT22;6014;47.690;9.130;2023-04-24T15:58:07;16.10;34.10
11908;DHT22;6014;47.690;9.130;2023-04-24T16:00:35;16.10;34.00
11908;DHT22;6014;47.690;9.130;2023-04-24T16:03:03;15.90;35.00
11908;DHT22;6014;47.690;9.130;2023-04-24T16:05:35;15.60;35.40
11908;DHT22;6014;47.690;9.130;2023-04-24T16:08:04;15.50;36.80
11908;DHT22;6014;47.690;9.130;2023-04-24T16:10:32;15.20;37.10
11908;DHT22;6014;47.690;9.130;2023-04-24T16:13:02;15.50;36.60
11908;DHT22;6014;47.690;9.130;2023-04-24T16:15:32;15.40;36.30
11908;DHT22;6014;47.690;9.130;2023-04-24T16:18:01;15.50;36.60
11908;DHT22;6014;47.690;9.130;2023-04-24T16:20:29;15.20;37.20
11908;DHT22;6014;47.690;9.130;2023-04-24T16:22:57;15.50;38.60
11908;DHT22;6014;47.690;9.130;2023-04-24T16:25:27;15.80;35.90
11908;DHT22;6014;47.690;9.130;2023-04-24T16:27:55;15.70;37.60
11908;DHT22;6014;47.690;9.130;2023-04-24T16:30:31;15.10;39.40
11908;DHT22;6014;47.690;9.130;2023-04-24T16:32:59;14.60;39.40
11908;DHT22;6014;47.690;9.130;2023-04-24T16:35:32;14.20;41.20
11908;DHT22;6014;47.690;9.130;2023-04-24T16:38:03;14.60;40.90
11908;DHT22;6014;47.690;9.130;2023-04-24T16:40:31;14.80;36.20
11908;DHT22;6014;47.690;9.130;2023-04-24T16:42:59;14.40;37.70
11908;DHT22;6014;47.690;9.130;2023-04-24T16:45:27;14.70;37.80